createdAt,value
2022-12-13T00:01:30.086Z,-4.70
2022-12-13T00:03:57.469Z,-4.70
2022-12-13T00:06:24.101Z,-4.80
2022-12-13T00:08:50.612Z,-4.80
2022-12-13T00:11:17.836Z,-4.80
2022-12-13T00:13:44.426Z,-4.80
2022-12-13T00:16:12.144Z,-4.80
2022-12-13T00:18:38.643Z,-4.80
2022-12-13T00:21:06.508Z,-4.90
2022-12-13T00:23:33.501Z,-4.90
2022-12-13T00:26:06.980Z,-4.90
2022-12-13T00:28:33.874Z,-5.00
2022-12-13T00:31:19.692Z,-5.10
2022-12-13T00:33:47.628Z,-5.10
2022-12-13T00:36:14.272Z,-5.10
2022-12-13T00:38:40.813Z,-5.10
2022-12-13T00:41:14.137Z,-5.20
2022-12-13T00:43:40.833Z,-5.20
2022-12-13T00:46:12.067Z,-5.10
2022-12-13T00:48:38.699Z,-5.20
2022-12-13T00:51:08.666Z,-5.10
2022-12-13T00:53:35.708Z,-5.10
2022-12-13T00:56:02.764Z,-5.10
2022-12-13T00:58:29.312Z,-5.00
2022-12-13T01:01:05.840Z,-5.00
2022-12-13T01:03:32.737Z,-5.00
2022-12-13T01:06:16.154Z,-5.00
2022-12-13T01:08:44.029Z,-5.10
2022-12-13T01:11:11.033Z,-5.10
2022-12-13T01:13:38.183Z,-5.20
2022-12-13T01:16:05.940Z,-5.20
2022-12-13T01:18:32.858Z,-5.20
2022-12-13T01:20:59.502Z,-5.20
2022-12-13T01:23:26.766Z,-5.30
2022-12-13T01:25:53.618Z,-5.30
2022-12-13T01:28:20.329Z,-5.30
2022-12-13T01:30:56.643Z,-5.40
2022-12-13T01:33:23.513Z,-5.40
2022-12-13T01:35:50.260Z,-5.40
2022-12-13T01:38:16.807Z,-5.40
2022-12-13T01:40:44.995Z,-5.50
2022-12-13T01:43:14.289Z,-5.50
2022-12-13T01:45:41.689Z,-5.60
2022-12-13T01:48:13.763Z,-5.60
2022-12-13T01:50:43.248Z,-5.50
2022-12-13T01:53:11.186Z,-5.50
2022-12-13T01:55:41.597Z,-5.60
2022-12-13T01:58:08.823Z,-5.50
2022-12-13T02:00:35.999Z,-5.50
2022-12-13T02:03:02.848Z,-5.60
2022-12-13T02:05:34.442Z,-5.60
2022-12-13T02:08:02.290Z,-5.60
2022-12-13T02:10:29.401Z,-5.60
2022-12-13T02:12:55.986Z,-5.70
2022-12-13T02:15:22.598Z,-5.80
2022-12-13T02:18:05.736Z,-5.70
2022-12-13T02:20:38.377Z,-5.70
2022-12-13T02:23:07.907Z,-5.70
2022-12-13T02:25:34.435Z,-5.70
2022-12-13T02:28:30.471Z,-5.70
2022-12-13T02:31:04.901Z,-5.80
2022-12-13T02:33:52.765Z,-5.80
2022-12-13T02:36:29.563Z,-5.80
2022-12-13T02:39:10.595Z,-5.80
2022-12-13T02:41:45.231Z,-5.90
2022-12-13T02:44:22.913Z,-5.90
2022-12-13T02:46:53.082Z,-5.90
2022-12-13T02:49:20.751Z,-5.90
2022-12-13T02:51:47.834Z,-5.90
2022-12-13T02:54:14.338Z,-6.00
2022-12-13T02:56:40.884Z,-6.00
2022-12-13T02:59:12.484Z,-6.00
2022-12-13T03:01:49.764Z,-6.00
2022-12-13T03:04:16.412Z,-6.00
2022-12-13T03:06:42.914Z,-6.10
2022-12-13T03:09:09.394Z,-6.10
2022-12-13T03:12:04.086Z,-6.10
2022-12-13T03:14:31.963Z,-6.20
2022-12-13T03:16:59.534Z,-6.20
2022-12-13T03:19:26.300Z,-6.20
2022-12-13T03:21:52.838Z,-6.20
2022-12-13T03:24:20.417Z,-6.20
2022-12-13T03:26:48.336Z,-6.20
2022-12-13T03:29:23.789Z,-6.30
2022-12-13T03:31:52.547Z,-6.30
2022-12-13T03:34:22.575Z,-6.30
2022-12-13T03:36:50.130Z,-6.30
2022-12-13T03:39:16.725Z,-6.30
2022-12-13T03:41:43.528Z,-6.30
2022-12-13T03:44:10.185Z,-6.30
2022-12-13T03:46:36.824Z,-6.40
2022-12-13T03:49:03.868Z,-6.40
2022-12-13T03:51:30.438Z,-6.40
2022-12-13T03:53:56.962Z,-6.40
2022-12-13T03:56:23.584Z,-6.40
2022-12-13T03:58:50.141Z,-6.30
2022-12-13T04:01:17.190Z,-6.40
2022-12-13T04:03:44.969Z,-6.40
2022-12-13T04:06:11.876Z,-6.30
2022-12-13T04:08:38.996Z,-6.30
2022-12-13T04:11:25.108Z,-6.30
2022-12-13T04:13:52.195Z,-6.30
2022-12-13T04:16:18.954Z,-6.40
2022-12-13T04:18:45.492Z,-6.30
2022-12-13T04:21:12.236Z,-6.40
2022-12-13T04:23:38.811Z,-6.80
2022-12-13T04:26:05.451Z,-6.40
2022-12-13T04:28:32.031Z,-6.40
2022-12-13T04:30:58.559Z,-6.40
2022-12-13T04:33:25.258Z,-6.30
2022-12-13T04:35:51.986Z,-6.40
2022-12-13T04:38:18.587Z,-6.50
2022-12-13T04:40:45.266Z,-6.50
2022-12-13T04:43:11.806Z,-6.50
2022-12-13T04:45:38.391Z,-6.40
2022-12-13T04:48:05.197Z,-6.50
2022-12-13T04:50:31.746Z,-6.50
2022-12-13T04:52:58.352Z,-6.50
2022-12-13T04:55:24.845Z,-6.50
2022-12-13T04:57:51.451Z,-6.50
2022-12-13T05:00:18.024Z,-6.50
2022-12-13T05:02:44.559Z,-6.40
2022-12-13T05:05:11.210Z,-6.40
2022-12-13T05:07:42.805Z,-6.40
2022-12-13T05:10:10.618Z,-6.40
2022-12-13T05:12:37.221Z,-6.50
2022-12-13T05:15:04.201Z,-6.60
2022-12-13T05:17:30.777Z,-7.00
2022-12-13T05:19:57.571Z,-6.70
2022-12-13T05:22:24.164Z,-6.10
2022-12-13T05:24:50.697Z,-6.70
2022-12-13T05:27:25.220Z,-6.80
2022-12-13T05:30:03.067Z,-6.80
2022-12-13T05:32:43.107Z,-6.80
2022-12-13T05:35:22.500Z,-6.20
2022-12-13T05:37:53.717Z,-6.80
2022-12-13T05:40:22.117Z,-6.90
2022-12-13T05:42:48.647Z,-6.90
2022-12-13T05:45:16.010Z,-6.90
2022-12-13T05:47:42.787Z,-6.90
2022-12-13T05:50:09.597Z,-6.90
2022-12-13T05:52:36.400Z,-6.80
2022-12-13T05:55:03.515Z,-6.80
2022-12-13T05:57:30.058Z,-6.70
2022-12-13T05:59:56.623Z,-6.80
2022-12-13T06:02:23.443Z,-6.80
2022-12-13T06:04:50.240Z,-6.80
2022-12-13T06:07:16.797Z,-6.80
2022-12-13T06:09:43.400Z,-6.90
2022-12-13T06:12:12.710Z,-6.80
2022-12-13T06:15:01.195Z,-6.80
2022-12-13T06:17:35.254Z,-6.80
2022-12-13T06:20:02.001Z,-6.80
2022-12-13T06:22:28.603Z,-6.80
2022-12-13T06:24:55.241Z,-6.60
2022-12-13T06:27:21.790Z,-6.70
2022-12-13T06:29:48.345Z,-6.80
2022-12-13T06:32:14.878Z,-6.90
2022-12-13T06:34:41.481Z,-6.90
2022-12-13T06:37:10.171Z,-6.90
2022-12-13T06:39:36.733Z,-6.90
2022-12-13T06:42:06.105Z,-6.90
2022-12-13T06:44:33.289Z,-6.90
2022-12-13T06:47:11.339Z,-6.80
2022-12-13T06:49:39.001Z,-6.80
2022-12-13T06:52:05.574Z,-6.80
2022-12-13T06:54:32.270Z,-6.90
2022-12-13T06:56:58.833Z,-6.80
2022-12-13T06:59:25.421Z,-6.80
2022-12-13T07:01:52.038Z,-6.80
2022-12-13T07:04:29.900Z,-6.90
2022-12-13T07:07:01.861Z,-7.00
2022-12-13T07:09:32.569Z,-7.00
2022-12-13T07:11:59.710Z,-6.90
2022-12-13T07:14:26.384Z,-6.90
2022-12-13T07:16:56.651Z,-6.90
2022-12-13T07:19:27.818Z,-6.80
2022-12-13T07:22:02.410Z,-6.70
2022-12-13T07:24:28.994Z,-6.70
2022-12-13T07:26:55.557Z,-6.50
2022-12-13T07:29:22.919Z,-6.60
2022-12-13T07:31:49.719Z,-6.60
2022-12-13T07:34:16.363Z,-6.50
2022-12-13T07:36:42.970Z,-6.50
2022-12-13T07:39:09.541Z,-6.50
2022-12-13T07:41:36.170Z,-6.50
2022-12-13T07:44:02.733Z,-6.50
2022-12-13T07:46:32.405Z,-6.50
2022-12-13T07:49:04.298Z,-6.50
2022-12-13T07:51:32.661Z,-6.60
2022-12-13T07:53:59.218Z,-6.50
2022-12-13T07:56:25.767Z,-6.50
2022-12-13T07:58:52.276Z,-6.50
2022-12-13T08:01:18.985Z,-6.50
2022-12-13T08:03:47.600Z,-6.40
2022-12-13T08:06:14.129Z,-6.40
2022-12-13T08:08:40.738Z,-6.30
2022-12-13T08:11:11.684Z,-6.30
2022-12-13T08:13:38.656Z,-6.20
2022-12-13T08:16:27.724Z,-6.20
2022-12-13T08:18:53.690Z,-6.10
2022-12-13T08:21:53.481Z,-6.00
2022-12-13T08:24:19.711Z,-6.00
2022-12-13T08:26:46.298Z,-5.90
2022-12-13T08:29:12.977Z,-5.80
2022-12-13T08:31:49.286Z,-5.70
2022-12-13T08:34:16.115Z,-5.70
2022-12-13T08:36:42.629Z,-5.50
2022-12-13T08:39:09.200Z,-5.40
2022-12-13T08:41:39.120Z,-5.30
2022-12-13T08:44:06.300Z,-5.20
2022-12-13T08:46:33.375Z,-5.10
2022-12-13T08:49:00.017Z,-5.00
2022-12-13T08:51:30.852Z,-4.80
2022-12-13T08:54:10.608Z,-4.70
2022-12-13T08:56:38.037Z,-4.50
2022-12-13T08:59:04.878Z,-4.60
2022-12-13T09:01:31.506Z,-4.60
2022-12-13T09:03:58.175Z,-4.50
2022-12-13T09:06:24.863Z,-4.50
2022-12-13T09:08:52.876Z,-4.40
2022-12-13T09:11:22.656Z,-4.40
2022-12-13T09:14:01.395Z,-4.30
2022-12-13T09:16:35.538Z,-4.20
2022-12-13T09:19:24.619Z,-4.20
2022-12-13T09:21:50.551Z,-4.10
2022-12-13T09:24:24.269Z,-4.00
2022-12-13T09:26:57.036Z,-4.00
2022-12-13T09:29:24.349Z,-4.00
2022-12-13T09:31:53.235Z,-3.90
2022-12-13T09:34:20.122Z,-4.00
2022-12-13T09:36:46.746Z,-3.70
2022-12-13T09:39:13.253Z,-3.80
2022-12-13T09:41:42.267Z,-3.70
2022-12-13T09:44:31.223Z,-3.60
2022-12-13T09:47:01.043Z,-3.50
2022-12-13T09:49:41.752Z,-3.50
2022-12-13T09:52:21.260Z,-3.40
2022-12-13T09:54:50.727Z,-3.30
2022-12-13T09:57:32.146Z,-3.20
2022-12-13T10:00:01.815Z,-3.10
2022-12-13T10:02:30.028Z,-2.90
2022-12-13T10:05:22.358Z,-2.80
2022-12-13T10:07:50.298Z,-2.80
2022-12-13T10:10:17.637Z,-2.70
2022-12-13T10:12:46.056Z,-2.50
2022-12-13T10:15:13.795Z,-2.40
2022-12-13T10:17:55.175Z,-2.30
2022-12-13T10:20:26.063Z,-2.20
2022-12-13T10:23:29.966Z,-2.00
2022-12-13T10:25:51.556Z,-1.70
2022-12-13T10:28:24.060Z,-1.70
2022-12-13T10:30:50.664Z,-1.50
2022-12-13T10:33:30.371Z,-1.50
2022-12-13T10:36:08.502Z,-1.40
2022-12-13T10:38:39.792Z,-1.20
2022-12-13T10:41:25.301Z,-1.10
2022-12-13T10:44:08.311Z,-1.00
2022-12-13T10:46:38.713Z,-0.80
2022-12-13T10:49:16.139Z,-0.60
2022-12-13T10:51:42.922Z,-0.70
2022-12-13T10:54:17.844Z,-0.50
2022-12-13T10:56:51.304Z,-0.40
2022-12-13T10:59:17.916Z,-0.50
2022-12-13T11:01:44.806Z,-0.50
2022-12-13T11:04:29.614Z,-0.40
2022-12-13T11:06:57.399Z,-0.20
2022-12-13T11:09:25.208Z,0.00
2022-12-13T11:11:58.644Z,0.10
2022-12-13T11:14:33.460Z,0.20
2022-12-13T11:17:07.301Z,0.30
2022-12-13T11:19:44.014Z,0.40
2022-12-13T11:22:18.808Z,0.40
2022-12-13T11:24:49.784Z,0.60
2022-12-13T11:27:34.824Z,0.60
2022-12-13T11:30:07.534Z,0.80
2022-12-13T11:32:59.253Z,0.90
2022-12-13T11:35:31.118Z,1.30
2022-12-13T11:38:04.966Z,1.40
2022-12-13T11:40:40.952Z,1.60
2022-12-13T11:43:17.140Z,1.50
2022-12-13T11:45:47.137Z,1.60
2022-12-13T11:48:18.973Z,1.80
2022-12-13T11:50:53.552Z,1.70
2022-12-13T11:53:23.038Z,1.90
2022-12-13T11:56:05.013Z,1.90
2022-12-13T11:59:11.315Z,1.90
2022-12-13T12:01:51.756Z,1.90
2022-12-13T12:04:39.669Z,2.00
2022-12-13T12:07:31.345Z,2.00
2022-12-13T12:10:03.212Z,2.10
2022-12-13T12:12:33.869Z,2.10
2022-12-13T12:15:05.643Z,2.30
2022-12-13T12:17:42.723Z,2.50
2022-12-13T12:20:12.162Z,2.70
2022-12-13T12:22:57.877Z,2.90
2022-12-13T12:25:29.042Z,3.00
2022-12-13T12:28:04.497Z,3.20
2022-12-13T12:30:51.411Z,3.30
2022-12-13T12:33:27.347Z,3.50
2022-12-13T12:36:00.983Z,3.50
2022-12-13T12:38:28.123Z,3.70
2022-12-13T12:41:24.764Z,3.70
2022-12-13T12:44:04.061Z,3.60
2022-12-13T12:47:18.910Z,3.70
2022-12-13T12:49:59.775Z,3.50
2022-12-13T12:52:47.137Z,3.40
2022-12-13T12:55:32.188Z,3.40
2022-12-13T12:58:06.478Z,3.40
2022-12-13T13:00:43.170Z,3.30
2022-12-13T13:03:22.657Z,3.20
2022-12-13T13:05:57.053Z,3.20
2022-12-13T13:08:34.138Z,3.10
2022-12-13T13:11:02.140Z,3.20
2022-12-13T13:13:49.701Z,3.50
2022-12-13T13:16:32.272Z,3.60
2022-12-13T13:19:02.833Z,3.80
2022-12-13T13:21:29.429Z,3.90
2022-12-13T13:24:02.537Z,4.00
2022-12-13T13:26:36.003Z,3.90
2022-12-13T13:29:26.599Z,3.70
2022-12-13T13:32:28.333Z,3.90
2022-12-13T13:35:16.573Z,3.70
2022-12-13T13:37:49.182Z,3.60
2022-12-13T13:40:35.176Z,3.60
2022-12-13T13:43:14.172Z,3.70
2022-12-13T13:45:50.029Z,3.60
2022-12-13T13:48:28.838Z,3.40
2022-12-13T13:51:06.717Z,3.30
2022-12-13T13:53:41.018Z,3.10
2022-12-13T13:56:30.554Z,3.10
2022-12-13T13:59:14.678Z,3.00
2022-12-13T14:02:01.525Z,2.80
2022-12-13T14:04:47.511Z,2.60
2022-12-13T14:07:39.998Z,2.50
2022-12-13T14:10:14.355Z,2.40
2022-12-13T14:12:44.084Z,2.30
2022-12-13T14:15:29.424Z,2.20
2022-12-13T14:18:11.202Z,2.20
2022-12-13T14:20:37.773Z,2.00
2022-12-13T14:23:09.331Z,1.90
2022-12-13T14:25:52.183Z,1.90
2022-12-13T14:28:22.088Z,1.70
2022-12-13T14:30:57.306Z,1.50
2022-12-13T14:33:25.942Z,1.40
2022-12-13T14:35:54.849Z,1.30
2022-12-13T14:38:25.666Z,1.30
2022-12-13T14:40:56.943Z,1.10
2022-12-13T14:43:24.976Z,1.20
2022-12-13T14:45:58.278Z,1.00
2022-12-13T14:48:28.903Z,0.90
2022-12-13T14:50:56.202Z,0.90
2022-12-13T14:53:43.065Z,0.90
2022-12-13T14:56:28.765Z,0.70
2022-12-13T14:58:56.868Z,0.60
2022-12-13T15:01:29.169Z,0.50
2022-12-13T15:04:15.776Z,0.50
2022-12-13T15:06:42.662Z,0.30
2022-12-13T15:09:15.988Z,0.20
2022-12-13T15:11:43.944Z,0.20
2022-12-13T15:14:15.666Z,0.10
2022-12-13T15:16:46.957Z,0.10
2022-12-13T15:19:29.163Z,0.00
2022-12-13T15:22:02.150Z,-0.10
2022-12-13T15:24:30.672Z,-0.20
2022-12-13T15:26:58.071Z,-0.30
2022-12-13T15:29:25.896Z,-0.30
2022-12-13T15:31:52.756Z,-0.50
2022-12-13T15:34:28.619Z,-0.50
2022-12-13T15:36:57.675Z,-0.60
2022-12-13T15:39:24.896Z,-0.60
2022-12-13T15:41:51.687Z,-0.50
2022-12-13T15:44:28.852Z,-0.70
2022-12-13T15:47:00.694Z,-0.90
2022-12-13T15:49:31.264Z,-0.80
2022-12-13T15:52:01.828Z,-1.00
2022-12-13T15:54:28.684Z,-1.10
2022-12-13T15:57:14.184Z,-1.10
2022-12-13T15:59:41.921Z,-1.20
2022-12-13T16:02:20.169Z,-1.20
2022-12-13T16:04:46.812Z,-1.30
2022-12-13T16:07:20.784Z,-1.30
2022-12-13T16:09:48.200Z,-1.40
2022-12-13T16:12:21.401Z,-1.40
2022-12-13T16:14:48.674Z,-1.30
2022-12-13T16:17:24.874Z,-1.40
2022-12-13T16:19:54.840Z,-1.60
2022-12-13T16:22:23.717Z,-1.70
2022-12-13T16:24:53.194Z,-1.70
2022-12-13T16:27:19.997Z,-1.80
2022-12-13T16:29:46.530Z,-1.80
2022-12-13T16:32:13.126Z,-1.90
2022-12-13T16:34:39.769Z,-1.90
2022-12-13T16:37:08.851Z,-2.00
2022-12-13T16:39:53.215Z,-2.00
2022-12-13T16:42:19.736Z,-2.00
2022-12-13T16:44:46.686Z,-2.00
2022-12-13T16:47:22.377Z,-2.00
2022-12-13T16:49:53.676Z,-2.10
2022-12-13T16:52:21.823Z,-2.20
2022-12-13T16:54:48.393Z,-2.20
2022-12-13T16:57:14.935Z,-2.20
2022-12-13T16:59:41.464Z,-2.20
2022-12-13T17:02:16.183Z,-2.20
2022-12-13T17:04:42.850Z,-2.20
2022-12-13T17:07:09.412Z,-2.30
2022-12-13T17:09:35.993Z,-2.20
2022-12-13T17:12:02.520Z,-2.20
2022-12-13T17:14:29.117Z,-2.20
2022-12-13T17:16:55.691Z,-2.20
2022-12-13T17:19:22.225Z,-2.20
2022-12-13T17:21:48.753Z,-2.10
2022-12-13T17:24:15.466Z,-2.20
2022-12-13T17:26:54.361Z,-2.20
2022-12-13T17:29:21.585Z,-2.30
2022-12-13T17:31:48.275Z,-2.20
2022-12-13T17:34:14.873Z,-2.20
2022-12-13T17:36:43.416Z,-2.20
2022-12-13T17:39:11.975Z,-2.20
2022-12-13T17:41:38.997Z,-2.20
2022-12-13T17:44:05.832Z,-2.30
2022-12-13T17:46:34.432Z,-2.30
2022-12-13T17:49:01.102Z,-2.40
2022-12-13T17:51:27.630Z,-2.40
2022-12-13T17:53:54.259Z,-2.40
2022-12-13T17:56:20.940Z,-2.40
2022-12-13T17:58:47.619Z,-2.40
2022-12-13T18:01:22.011Z,-2.40
2022-12-13T18:03:49.120Z,-2.50
2022-12-13T18:06:15.676Z,-2.50
2022-12-13T18:08:44.338Z,-2.50
2022-12-13T18:13:58.667Z,-2.60
2022-12-13T18:16:32.052Z,-2.60
2022-12-13T18:19:03.563Z,-2.70
2022-12-13T18:21:30.377Z,-2.60
2022-12-13T18:23:58.842Z,-2.70
2022-12-13T18:26:25.479Z,-2.60
2022-12-13T18:28:52.070Z,-2.70
2022-12-13T18:31:21.887Z,-2.70
2022-12-13T18:33:49.565Z,-2.70
2022-12-13T18:36:16.809Z,-2.70
2022-12-13T18:38:43.682Z,-2.80
2022-12-13T18:41:12.443Z,-2.80
2022-12-13T18:43:38.985Z,-2.80
2022-12-13T18:46:05.990Z,-2.80
2022-12-13T18:48:32.879Z,-2.80
2022-12-13T18:51:03.502Z,-2.80
2022-12-13T18:53:31.509Z,-2.70
2022-12-13T18:56:04.964Z,-2.70
2022-12-13T18:58:31.975Z,-2.70
2022-12-13T19:00:58.826Z,-2.80
2022-12-13T19:03:26.111Z,-2.80
2022-12-13T19:05:55.761Z,-2.80
2022-12-13T19:08:26.319Z,-2.80
2022-12-13T19:10:53.985Z,-2.80
2022-12-13T19:13:22.822Z,-2.80
2022-12-13T19:15:50.109Z,-2.80
2022-12-13T19:18:16.808Z,-2.70
2022-12-13T19:20:47.282Z,-2.80
2022-12-13T19:23:14.858Z,-2.80
2022-12-13T19:25:41.948Z,-2.80
2022-12-13T19:28:10.039Z,-2.70
2022-12-13T19:30:36.745Z,-2.70
2022-12-13T19:33:03.652Z,-2.80
2022-12-13T19:35:30.229Z,-2.80
2022-12-13T19:37:56.770Z,-2.70
2022-12-13T19:40:23.436Z,-2.80
2022-12-13T19:42:49.965Z,-2.80
2022-12-13T19:45:16.505Z,-2.80
2022-12-13T19:47:43.055Z,-2.80
2022-12-13T19:50:15.420Z,-2.80
2022-12-13T19:52:42.207Z,-2.80
2022-12-13T19:55:08.807Z,-2.80
2022-12-13T19:57:35.604Z,-2.80
2022-12-13T20:00:02.155Z,-2.70
2022-12-13T20:02:29.184Z,-2.60
2022-12-13T20:04:55.751Z,-2.70
2022-12-13T20:07:23.801Z,-2.70
2022-12-13T20:09:50.391Z,-2.60
2022-12-13T20:12:17.252Z,-2.60
2022-12-13T20:14:43.913Z,-2.60
2022-12-13T20:17:10.570Z,-2.70
2022-12-13T20:19:37.241Z,-2.60
2022-12-13T20:22:03.834Z,-2.60
2022-12-13T20:24:30.473Z,-2.60
2022-12-13T20:26:57.023Z,-2.60
2022-12-13T20:29:23.607Z,-2.60
2022-12-13T20:31:51.474Z,-2.60
2022-12-13T20:34:19.906Z,-2.60
2022-12-13T20:36:46.437Z,-2.70
2022-12-13T20:39:14.475Z,-2.70
2022-12-13T20:41:41.234Z,-2.60
2022-12-13T20:44:08.732Z,-2.60
2022-12-13T20:46:35.552Z,-2.60
2022-12-13T20:49:02.849Z,-2.60
2022-12-13T20:51:30.279Z,-2.60
2022-12-13T20:53:57.016Z,-2.60
2022-12-13T20:56:24.869Z,-2.60
2022-12-13T20:58:52.027Z,-2.50
2022-12-13T21:01:21.688Z,-2.60
2022-12-13T21:03:49.422Z,-2.50
2022-12-13T21:06:16.156Z,-2.50
2022-12-13T21:08:51.476Z,-2.60
2022-12-13T21:11:24.576Z,-2.60
2022-12-13T21:13:51.153Z,-2.50
2022-12-13T21:16:18.291Z,-2.60
2022-12-13T21:18:44.886Z,-2.60
2022-12-13T21:21:11.443Z,-2.60
2022-12-13T21:23:37.984Z,-2.60
2022-12-13T21:26:04.798Z,-2.60
2022-12-13T21:28:31.425Z,-2.60
2022-12-13T21:31:02.006Z,-2.70
2022-12-13T21:33:29.966Z,-2.70
2022-12-13T21:35:56.888Z,-2.70
2022-12-13T21:38:23.446Z,-2.80
2022-12-13T21:40:50.281Z,-2.80
2022-12-13T21:43:17.056Z,-2.70
2022-12-13T21:45:44.135Z,-2.70
2022-12-13T21:48:10.714Z,-2.70
2022-12-13T21:50:37.210Z,-2.90
2022-12-13T21:53:04.889Z,-2.90
2022-12-13T21:55:39.935Z,-2.90
2022-12-13T21:58:27.095Z,-2.90
2022-12-13T22:00:53.919Z,-2.90
2022-12-13T22:03:20.457Z,-2.80
2022-12-13T22:05:46.982Z,-2.80
2022-12-13T22:08:13.568Z,-2.80
2022-12-13T22:11:00.085Z,-2.80
2022-12-13T22:13:26.599Z,-2.80
2022-12-13T22:15:53.175Z,-2.80
2022-12-13T22:18:19.812Z,-2.80
2022-12-13T22:20:46.375Z,-2.70
2022-12-13T22:23:12.971Z,-2.70
2022-12-13T22:25:39.465Z,-2.70
2022-12-13T22:28:06.086Z,-2.60
2022-12-13T22:30:33.790Z,-2.60
2022-12-13T22:33:00.313Z,-2.60
2022-12-13T22:35:27.638Z,-2.60
2022-12-13T22:37:58.786Z,-2.60
2022-12-13T22:40:27.875Z,-2.50
2022-12-13T22:42:54.419Z,-2.50
2022-12-13T22:45:21.020Z,-2.30
2022-12-13T22:47:47.559Z,-2.40
2022-12-13T22:50:14.119Z,-2.50
2022-12-13T22:52:40.700Z,-2.50
2022-12-13T22:55:07.442Z,-2.50
2022-12-13T22:57:33.969Z,-2.00
2022-12-13T23:00:00.529Z,-2.40
2022-12-13T23:02:27.153Z,-2.50
2022-12-13T23:04:54.044Z,-2.40
2022-12-13T23:07:20.610Z,-2.40
2022-12-13T23:09:47.148Z,-2.40
2022-12-13T23:12:32.573Z,-2.40
2022-12-13T23:14:59.123Z,-2.40
2022-12-13T23:17:25.749Z,-2.40
2022-12-13T23:19:53.516Z,-2.40
2022-12-13T23:22:21.544Z,-2.20
2022-12-13T23:24:48.460Z,-2.40
2022-12-13T23:27:15.194Z,-2.40
2022-12-13T23:29:41.749Z,-2.40
2022-12-13T23:32:08.310Z,-2.40
2022-12-13T23:34:34.923Z,-2.40
2022-12-13T23:37:01.488Z,-2.30
2022-12-13T23:39:28.084Z,-2.30
2022-12-13T23:41:54.619Z,-2.30
2022-12-13T23:44:21.220Z,-2.30
2022-12-13T23:46:48.508Z,-2.20
2022-12-13T23:49:15.830Z,-2.20
2022-12-13T23:51:42.465Z,-2.20
2022-12-13T23:54:11.686Z,-2.20
2022-12-13T23:56:38.283Z,-2.30
2022-12-13T23:59:05.000Z,-2.20
